Time;durP1;ratioP1;P1;durP2;ratioP2;P2;SDS_P1;SDS_P2;PMS_P1;PMS_P2;Temp;Humidity;BMP_temperature;BMP_pressure;BME280_temperature;BME280_humidity;BME280_pressure;Samples;Min_cycle;Max_cycle;Signal;HPM_P1;HPM_P2
2024/01/22 00:00:25;;;;;;;;;3.00;3.00;;;;;13.34;100.00;101077.63;2094965;28;45606;-65
2024/01/22 00:01:26;;;;;;;;;5.33;5.00;;;;;13.36;100.00;101085.56;2095040;28;46595;-67
2024/01/22 00:02:26;;;;;;;;;6.33;5.00;;;;;13.36;100.00;101082.91;2095721;28;45572;-66
2024/01/22 00:03:27;;;;;;;;;5.00;5.00;;;;;13.38;100.00;101086.41;2097316;28;45616;-65
2024/01/22 00:04:27;;;;;;;;;6.33;6.33;;;;;13.38;100.00;101079.28;2096926;28;46141;-65
2024/01/22 00:05:27;;;;;;;;;6.67;5.33;;;;;13.40;100.00;101082.75;2097255;28;45988;-65
2024/01/22 00:06:28;;;;;;;;;5.33;5.33;;;;;13.40;100.00;101073.88;2096810;28;46512;-64
2024/01/22 00:07:28;;;;;;;;;5.33;5.33;;;;;13.40;100.00;101069.44;2096705;28;46128;-65
2024/01/22 00:08:28;;;;;;;;;4.00;4.00;;;;;13.40;100.00;101069.44;2096805;28;46466;-64
2024/01/22 00:09:28;;;;;;;;;4.00;4.00;;;;;13.41;100.00;101088.97;2096429;28;46173;-66
2024/01/22 00:10:29;;;;;;;;;3.00;3.00;;;;;13.42;100.00;101072.06;2097131;28;46222;-66
2024/01/22 00:11:29;;;;;;;;;6.67;5.00;;;;;13.43;100.00;101069.34;2096883;28;46692;-65
2024/01/22 00:12:30;;;;;;;;;5.00;5.00;;;;;13.43;100.00;101080.00;2096713;28;46521;-65
2024/01/22 00:13:30;;;;;;;;;5.67;4.00;;;;;13.44;100.00;101076.41;2097035;28;46773;-66
2024/01/22 00:14:31;;;;;;;;;5.33;3.33;;;;;13.44;100.00;101086.22;2091827;28;46484;-65
2024/01/22 00:15:32;;;;;;;;;6.00;6.00;;;;;13.45;100.00;101058.63;2090174;28;46723;-66
2024/01/22 00:16:37;;;;;;;;;3.25;3.00;;;;;13.46;100.00;101066.56;2105323;27;46950;-65
2024/01/22 00:17:37;;;;;;;;;4.50;4.00;;;;;13.48;100.00;101058.56;2100071;27;47376;-64
2024/01/22 00:18:38;;;;;;;;;5.00;5.00;;;;;13.48;100.00;101054.09;2095491;28;46518;-65
2024/01/22 00:19:38;;;;;;;;;4.67;4.67;;;;;13.48;100.00;101054.09;2094290;28;47056;-65
2024/01/22 00:20:40;;;;;;;;;4.00;4.00;;;;;13.50;100.00;101038.94;2096307;28;46388;-66
2024/01/22 00:21:42;;;;;;;;;5.75;4.50;;;;;13.52;100.00;101033.56;2096751;28;46833;-65
2024/01/22 00:22:44;;;;;;;;;2.50;2.50;;;;;13.51;100.00;101040.69;2096215;28;45599;-64
2024/01/22 00:23:44;;;;;;;;;3.50;3.50;;;;;13.51;100.00;101042.47;2096887;28;45875;-65
2024/01/22 00:24:44;;;;;;;;;2.67;2.67;;;;;13.50;100.00;101014.94;2096658;28;46599;-65
2024/01/22 00:25:45;;;;;;;;;5.00;4.00;;;;;13.51;100.00;101019.34;2097662;28;45544;-65
2024/01/22 00:26:45;;;;;;;;;4.33;3.33;;;;;13.52;100.00;101047.75;2096917;28;46089;-65
2024/01/22 00:27:45;;;;;;;;;4.00;4.00;;;;;13.52;100.00;100994.44;2097060;28;46642;-66
2024/01/22 00:28:46;;;;;;;;;3.00;3.00;;;;;13.54;100.00;101018.38;2096751;28;46736;-66
2024/01/22 00:29:46;;;;;;;;;3.00;3.00;;;;;13.49;100.00;101039.84;2097236;28;45026;-66
2024/01/22 00:30:46;;;;;;;;;3.00;3.00;;;;;13.48;100.00;100997.25;2096481;28;46739;-65
2024/01/22 00:31:47;;;;;;;;;4.00;4.00;;;;;13.46;100.00;100994.59;2095505;28;45790;-66
2024/01/22 00:32:47;;;;;;;;;2.00;2.00;;;;;13.47;100.00;100966.16;2087513;28;46217;-65
2024/01/22 00:33:47;;;;;;;;;3.67;3.67;;;;;13.47;100.00;100976.84;2095889;28;46450;-65
2024/01/22 00:34:48;;;;;;;;;5.67;3.00;;;;;13.48;100.00;100987.44;2096851;28;46636;-65
2024/01/22 00:35:48;;;;;;;;;3.00;3.00;;;;;13.51;100.00;100991.81;2096758;28;46223;-65
2024/01/22 00:36:48;;;;;;;;;4.00;4.00;;;;;13.52;100.00;100977.56;2095736;28;46037;-65
2024/01/22 00:37:49;;;;;;;;;5.00;3.00;;;;;13.54;100.00;100983.72;2096907;28;45535;-66
2024/01/22 00:38:49;;;;;;;;;3.33;3.33;;;;;13.54;100.00;100981.94;2096580;28;46346;-66
2024/01/22 00:39:53;;;;;;;;;3.33;2.67;;;;;13.56;100.00;100981.88;2096470;28;46541;-65
2024/01/22 00:40:53;;;;;;;;;3.00;3.00;;;;;13.59;100.00;100967.56;2096694;28;46705;-64
2024/01/22 00:41:54;;;;;;;;;2.33;2.00;;;;;13.60;100.00;100961.34;2096421;28;46499;-65
2024/01/22 00:42:54;;;;;;;;;4.00;3.00;;;;;13.62;100.00;100970.16;2096480;28;46419;-64
2024/01/22 00:43:54;;;;;;;;;2.33;2.33;;;;;13.61;100.00;100963.09;2095858;28;46269;-65
2024/01/22 00:44:55;;;;;;;;;3.00;3.00;;;;;13.66;100.00;100963.81;2103552;28;46624;-65
2024/01/22 00:45:55;;;;;;;;;3.00;3.00;;;;;13.66;100.00;100980.69;2104181;28;46599;-65
2024/01/22 00:46:55;;;;;;;;;2.33;2.33;;;;;13.66;100.00;100979.81;2096522;28;45931;-65
2024/01/22 00:47:56;;;;;;;;;2.00;2.00;;;;;13.67;100.00;100978.88;2096987;28;45831;-65
2024/01/22 00:48:56;;;;;;;;;5.00;3.00;;;;;13.68;100.00;100952.16;2096684;28;46153;-65
2024/01/22 00:49:56;;;;;;;;;2.00;2.00;;;;;13.69;100.00;100964.59;2095793;28;46867;-65
2024/01/22 00:50:57;;;;;;;;;3.67;3.67;;;;;13.70;100.00;100925.44;2096219;28;46632;-65
2024/01/22 00:51:57;;;;;;;;;4.00;3.00;;;;;13.70;100.00;100974.31;2096618;28;45590;-66
2024/01/22 00:52:57;;;;;;;;;2.00;2.00;;;;;13.70;100.00;100950.31;2095999;28;46429;-66
2024/01/22 00:53:58;;;;;;;;;2.33;2.33;;;;;13.69;100.00;100961.03;2095252;28;46677;-65
2024/01/22 00:54:58;;;;;;;;;3.00;3.00;;;;;13.72;100.00;100967.19;2094891;28;46543;-66
2024/01/22 00:55:58;;;;;;;;;3.00;2.00;;;;;13.72;100.00;100964.50;2093982;28;46104;-65
2024/01/22 00:56:59;;;;;;;;;2.67;2.67;;;;;13.73;100.00;100997.41;2096733;28;46308;-66
2024/01/22 00:57:59;;;;;;;;;2.00;2.00;;;;;13.74;100.00;100991.13;2097222;28;46356;-65
2024/01/22 00:59:00;;;;;;;;;2.67;2.67;;;;;13.72;100.00;100964.50;2097011;28;46928;-64
2024/01/22 01:00:00;;;;;;;;;2.00;2.00;;;;;13.75;100.00;100982.22;2096381;28;46246;-65
2024/01/22 01:01:01;;;;;;;;;2.00;2.00;;;;;13.74;100.00;100993.81;2096717;28;46775;-65
2024/01/22 01:02:01;;;;;;;;;2.00;2.00;;;;;13.74;100.00;100969.78;2096996;28;45709;-66
2024/01/22 01:03:02;;;;;;;;;3.00;2.00;;;;;13.73;100.00;100979.59;2096737;28;45799;-65
2024/01/22 01:04:02;;;;;;;;;3.00;3.00;;;;;13.74;100.00;100978.66;2096388;28;46947;-65
2024/01/22 01:05:03;;;;;;;;;2.33;2.33;;;;;13.77;100.00;100999.91;2095721;28;46896;-65
2024/01/22 01:06:03;;;;;;;;;4.33;4.33;;;;;13.75;100.00;100972.41;2086645;28;46669;-65
2024/01/22 01:07:03;;;;;;;;;3.33;3.33;;;;;13.77;100.00;100940.34;2095192;28;46764;-66
2024/01/22 01:08:04;;;;;;;;;3.00;2.00;;;;;13.78;100.00;100972.31;2096568;28;46279;-65
2024/01/22 01:09:05;;;;;;;;;2.00;2.00;;;;;13.78;100.00;100969.66;2095422;28;46655;-65
2024/01/22 01:10:06;;;;;;;;;4.00;3.00;;;;;13.78;100.00;100979.44;2097014;28;46738;-65
2024/01/22 01:11:06;;;;;;;;;3.50;2.00;;;;;13.79;100.00;100983.84;2084930;28;46566;-65
2024/01/22 01:12:07;;;;;;;;;3.00;3.00;;;;;13.79;100.00;100983.84;2087028;28;46618;-65
2024/01/22 01:13:07;;;;;;;;;1.67;1.67;;;;;13.87;100.00;100997.84;2098060;28;45811;-65
2024/01/22 01:14:08;;;;;;;;;2.00;2.00;;;;;13.87;100.00;100995.19;2098600;28;46755;-65
2024/01/22 01:15:09;;;;;;;;;4.00;3.00;;;;;13.88;100.00;101014.72;2105066;28;46334;-65
2024/01/22 01:16:09;;;;;;;;;3.00;2.00;;;;;13.83;100.00;101004.16;2089583;28;46365;-65
2024/01/22 01:17:09;;;;;;;;;2.33;2.00;;;;;13.83;100.00;100974.81;2081928;28;46510;-65
2024/01/22 01:18:11;;;;;;;;;2.00;2.00;;;;;13.83;100.00;100983.69;2097964;28;45289;-65
2024/01/22 01:19:11;;;;;;;;;2.50;1.50;;;;;13.84;100.00;100979.25;2097928;28;45141;-66
2024/01/22 01:20:12;;;;;;;;;2.00;2.00;;;;;13.83;100.00;100969.50;2097820;28;46003;-65
2024/01/22 01:21:12;;;;;;;;;2.00;2.00;;;;;13.83;100.00;100991.72;2097599;28;46430;-66
2024/01/22 01:22:12;;;;;;;;;3.00;3.00;;;;;13.86;100.00;100984.56;2097742;28;46394;-66
2024/01/22 01:23:13;;;;;;;;;2.00;2.00;;;;;13.87;100.00;100988.97;2097526;28;45714;-65
2024/01/22 01:24:13;;;;;;;;;2.00;2.00;;;;;13.85;100.00;100981.00;2097276;28;46625;-65
2024/01/22 01:25:14;;;;;;;;;2.67;2.67;;;;;13.90;100.00;100951.50;2097570;28;45123;-65
2024/01/22 01:26:14;;;;;;;;;2.25;2.25;;;;;13.91;100.00;100986.16;2097420;28;46481;-65
2024/01/22 01:27:17;;;;;;;;;2.00;2.00;;;;;13.88;100.00;100969.38;2097943;28;46300;-65
2024/01/22 01:28:17;;;;;;;;;1.25;1.25;;;;;13.91;100.00;100970.13;2096474;28;46409;-64
2024/01/22 01:29:18;;;;;;;;;2.00;2.00;;;;;13.92;100.00;100981.69;2097850;28;46559;-65
2024/01/22 01:30:18;;;;;;;;;2.00;2.00;;;;;13.88;100.00;100974.69;2097809;28;46197;-65
2024/01/22 01:31:18;;;;;;;;;1.33;1.33;;;;;13.87;100.00;100979.16;2097819;28;45721;-65
2024/01/22 01:32:19;;;;;;;;;2.00;2.00;;;;;13.89;100.00;100960.44;2097482;28;46538;-65
2024/01/22 01:33:19;;;;;;;;;3.00;2.67;;;;;13.91;100.00;100987.94;2097932;28;46276;-66
2024/01/22 01:34:19;;;;;;;;;2.00;1.33;;;;;13.90;100.00;100971.06;2097820;28;46494;-65
2024/01/22 01:35:20;;;;;;;;;4.00;2.00;;;;;13.94;100.00;100969.16;2096332;28;45945;-65
2024/01/22 01:36:21;;;;;;;;;3.00;2.75;;;;;13.96;100.00;100964.66;2088522;28;46488;-65
2024/01/22 01:37:21;;;;;;;;;2.00;2.00;;;;;13.94;100.00;100964.69;2097191;28;46387;-66
2024/01/22 01:38:22;;;;;;;;;2.00;2.00;;;;;13.93;100.00;100964.75;2097738;28;46095;-66
2024/01/22 01:39:22;;;;;;;;;2.33;2.33;;;;;13.91;100.00;100983.47;2097970;28;46810;-66
2024/01/22 01:40:23;;;;;;;;;4.00;2.67;;;;;13.91;100.00;100967.47;2097852;28;46691;-65
2024/01/22 01:41:23;;;;;;;;;2.00;2.00;;;;;13.90;100.00;100965.72;2097581;28;46349;-65
2024/01/22 01:42:24;;;;;;;;;2.00;2.00;;;;;13.91;100.00;100969.25;2097916;28;46369;-66
2024/01/22 01:43:24;;;;;;;;;2.00;2.00;;;;;13.91;100.00;100959.47;2097805;28;46322;-64
2024/01/22 01:44:39;;;;;;;;;2.00;2.00;;;;;13.92;100.00;100950.53;2096959;28;45050;-65
2024/01/22 01:45:40;;;;;;;;;2.00;2.00;;;;;13.93;100.00;100951.41;2097820;27;46450;-64
2024/01/22 01:46:40;;;;;;;;;2.00;2.00;;;;;13.93;100.00;100952.28;2097667;28;46814;-65
2024/01/22 01:47:47;;;;;;;;;3.00;3.00;;;;;13.94;100.00;100940.69;2097937;28;46315;-65
2024/01/22 01:48:49;;;;;;;;;2.00;2.00;;;;;13.94;100.00;100935.34;2097696;28;46939;-65
2024/01/22 01:49:50;;;;;;;;;4.00;3.00;;;;;13.94;100.00;100940.69;2097764;28;45046;-65
2024/01/22 01:50:51;;;;;;;;;2.50;2.50;;;;;13.95;100.00;100962.91;2098028;28;46393;-65
2024/01/22 01:51:51;;;;;;;;;2.33;2.00;;;;;14.01;100.00;100944.91;2097574;28;46287;-66
2024/01/22 01:52:52;;;;;;;;;4.00;3.00;;;;;14.02;100.00;100967.13;2097416;28;46315;-66
2024/01/22 01:53:55;;;;;;;;;2.75;2.25;;;;;14.03;100.00;100952.88;2097393;28;46147;-65
2024/01/22 01:54:55;;;;;;;;;2.00;2.00;;;;;14.05;100.00;100959.03;2099388;28;46398;-65
2024/01/22 01:55:57;;;;;;;;;3.33;3.33;;;;;14.06;100.00;100979.44;2097644;28;46627;-64
2024/01/22 01:56:58;;;;;;;;;5.25;2.25;;;;;14.04;100.00;100975.97;2097544;28;46704;-64
2024/01/22 01:57:59;;;;;;;;;3.00;3.00;;;;;13.99;100.00;100973.44;2097434;28;46723;-65
2024/01/22 01:59:00;;;;;;;;;3.00;3.00;;;;;13.97;100.00;100967.25;2097457;28;46715;-65
2024/01/22 02:00:04;;;;;;;;;5.25;4.25;;;;;14.00;100.00;100966.31;2094559;28;46443;-65
2024/01/22 02:01:06;;;;;;;;;3.75;2.75;;;;;14.00;100.00;100953.84;2096350;28;46787;-65
2024/01/22 02:02:06;;;;;;;;;4.00;2.75;;;;;14.00;100.00;100955.66;2097334;28;46082;-64
2024/01/22 02:03:09;;;;;;;;;2.67;2.67;;;;;13.97;100.00;100953.03;2096903;28;46246;-65
2024/01/22 02:04:09;;;;;;;;;2.25;2.00;;;;;13.96;100.00;100938.84;2097912;28;46310;-65
2024/01/22 02:05:09;;;;;;;;;3.33;3.33;;;;;13.96;100.00;100957.50;2097575;28;46585;-65
2024/01/22 02:06:10;;;;;;;;;2.00;2.00;;;;;13.97;100.00;100966.38;2097652;28;46921;-64
2024/01/22 02:07:11;;;;;;;;;1.00;1.00;;;;;13.98;100.00;100944.16;2096014;28;46283;-64
2024/01/22 02:08:11;;;;;;;;;0.00;0.00;;;;;13.98;100.00;100942.34;2096469;28;46801;-65
2024/01/22 02:09:12;;;;;;;;;2.00;2.00;;;;;13.99;100.00;100951.22;2105032;28;46552;-65
2024/01/22 02:10:13;;;;;;;;;2.00;2.00;;;;;14.00;100.00;100944.97;2105455;28;46615;-65
2024/01/22 02:11:13;;;;;;;;;2.75;2.00;;;;;14.01;100.00;100968.06;2104747;28;45965;-65
2024/01/22 02:12:16;;;;;;;;;3.00;3.00;;;;;14.02;100.00;100948.47;2105124;28;46444;-65
2024/01/22 02:13:16;;;;;;;;;3.00;3.00;;;;;14.01;100.00;100947.59;2104978;28;46558;-65
2024/01/22 02:14:16;;;;;;;;;3.00;3.00;;;;;14.02;100.00;100943.13;2104993;27;46101;-64
2024/01/22 02:15:18;;;;;;;;;2.33;2.33;;;;;14.03;100.00;100953.75;2105357;28;46980;-65
2024/01/22 02:16:18;;;;;;;;;2.00;2.00;;;;;14.03;100.00;100942.19;2102994;27;46303;-65
2024/01/22 02:17:19;;;;;;;;;2.00;2.00;;;;;14.03;100.00;100958.19;2104648;28;46151;-65
2024/01/22 02:18:19;;;;;;;;;2.00;2.00;;;;;14.03;100.00;100964.41;2105347;28;46593;-67
2024/01/22 02:19:20;;;;;;;;;2.00;2.00;;;;;14.03;100.00;100948.41;2105183;28;45503;-65
2024/01/22 02:20:20;;;;;;;;;3.00;1.00;;;;;14.03;100.00;100945.72;2104936;27;45599;-64
2024/01/22 02:21:20;;;;;;;;;2.00;1.33;;;;;14.04;100.00;100965.28;2103850;28;45445;-65
2024/01/22 02:22:21;;;;;;;;;5.00;2.00;;;;;14.04;100.00;100950.16;2103371;28;46372;-65
2024/01/22 02:23:21;;;;;;;;;1.33;1.33;;;;;14.06;100.00;100952.75;2105118;27;46643;-66
2024/01/22 02:24:21;;;;;;;;;3.67;2.67;;;;;14.07;100.00;100927.81;2104979;28;46687;-65
2024/01/22 02:25:22;;;;;;;;;1.33;1.33;;;;;14.07;100.00;100951.84;2104804;28;46865;-65
2024/01/22 02:26:22;;;;;;;;;1.00;1.00;;;;;14.07;100.00;100938.50;2105202;28;46516;-66
2024/01/22 02:27:23;;;;;;;;;2.00;2.00;;;;;14.07;100.00;100947.38;2108893;27;45723;-65
2024/01/22 02:28:24;;;;;;;;;2.50;2.00;;;;;14.08;100.00;100961.59;2113726;27;46118;-64
2024/01/22 02:29:24;;;;;;;;;2.00;2.00;;;;;14.10;100.00;100957.06;2105142;28;46633;-65
2024/01/22 02:30:24;;;;;;;;;2.33;2.33;;;;;14.10;100.00;100957.06;2104818;28;46024;-66
2024/01/22 02:31:25;;;;;;;;;3.00;3.00;;;;;14.09;100.00;100958.88;2104917;28;46242;-65
2024/01/22 02:32:25;;;;;;;;;2.33;2.33;;;;;14.09;100.00;100963.31;2104949;27;46137;-64
2024/01/22 02:33:25;;;;;;;;;2.00;2.00;;;;;14.07;100.00;100951.84;2104732;28;46796;-66
2024/01/22 02:34:26;;;;;;;;;2.00;1.00;;;;;14.06;100.00;100942.97;2095190;28;46703;-65
2024/01/22 02:35:26;;;;;;;;;1.00;1.00;;;;;14.09;100.00;100945.53;2096346;28;46577;-65
2024/01/22 02:36:26;;;;;;;;;2.00;2.00;;;;;14.10;100.00;100951.72;2104715;28;46275;-65
2024/01/22 02:37:27;;;;;;;;;2.00;2.00;;;;;14.12;100.00;100941.91;2095961;28;46063;-65
2024/01/22 02:38:27;;;;;;;;;2.00;2.00;;;;;14.08;100.00;100934.91;2096528;28;45881;-64
2024/01/22 02:39:27;;;;;;;;;2.00;2.00;;;;;14.11;100.00;100927.69;2097477;28;45905;-66
2024/01/22 02:40:28;;;;;;;;;1.33;1.33;;;;;14.11;100.00;100945.50;2096219;28;46838;-66
2024/01/22 02:41:28;;;;;;;;;2.67;2.67;;;;;14.06;100.00;100940.28;2096185;28;46323;-65
2024/01/22 02:42:28;;;;;;;;;1.33;1.00;;;;;14.12;100.00;100924.09;2096409;28;46915;-67
2024/01/22 02:43:29;;;;;;;;;3.00;1.00;;;;;14.14;100.00;100922.25;2096541;28;46647;-65
2024/01/22 02:44:29;;;;;;;;;3.00;1.00;;;;;14.15;100.00;100909.78;2096716;28;45917;-65
2024/01/22 02:45:29;;;;;;;;;4.00;2.00;;;;;14.14;100.00;100910.69;2096328;28;46924;-65
2024/01/22 02:46:30;;;;;;;;;2.00;2.00;;;;;14.14;100.00;100913.38;2097558;28;46506;-66
2024/01/22 02:47:30;;;;;;;;;2.00;1.00;;;;;14.13;100.00;100904.50;2096487;28;46455;-65
2024/01/22 02:48:30;;;;;;;;;3.00;2.67;;;;;14.19;100.00;100911.41;2099199;28;46135;-65
2024/01/22 02:49:31;;;;;;;;;3.33;3.00;;;;;14.22;100.00;100919.31;2096566;28;46448;-65
2024/01/22 02:50:31;;;;;;;;;2.00;2.00;;;;;14.21;100.00;100906.88;2096287;28;47329;-65
2024/01/22 02:51:31;;;;;;;;;2.33;2.00;;;;;14.18;100.00;100893.66;2094975;28;46205;-66
2024/01/22 02:52:32;;;;;;;;;2.00;2.00;;;;;14.19;100.00;100898.06;2096607;28;46477;-66
2024/01/22 02:53:32;;;;;;;;;3.00;1.33;;;;;14.20;100.00;100882.91;2096509;28;46567;-64
2024/01/22 02:54:32;;;;;;;;;1.00;1.00;;;;;14.20;100.00;100901.59;2096460;28;46889;-65
2024/01/22 02:55:33;;;;;;;;;2.00;2.00;;;;;14.20;100.00;100898.94;2096414;28;45881;-65
2024/01/22 02:56:33;;;;;;;;;2.00;1.00;;;;;14.22;100.00;100894.41;2086124;28;46882;-65
2024/01/22 02:57:33;;;;;;;;;3.00;2.00;;;;;14.22;100.00;100905.06;2088278;28;46346;-64
2024/01/22 02:58:33;;;;;;;;;2.00;2.00;;;;;14.22;100.00;100892.59;2096129;28;46489;-65
2024/01/22 02:59:36;;;;;;;;;7.00;5.67;;;;;14.22;100.00;100889.06;2071036;28;46665;-66
2024/01/22 03:00:36;;;;;;;;;3.00;3.00;;;;;14.27;100.00;100904.03;2071861;28;47392;-65
2024/01/22 03:01:37;;;;;;;;;2.00;2.00;;;;;14.27;100.00;100884.47;2094161;28;46279;-65
2024/01/22 03:02:37;;;;;;;;;3.00;3.00;;;;;14.29;100.00;100885.28;2087716;28;46610;-65
2024/01/22 03:03:38;;;;;;;;;5.00;3.00;;;;;14.29;100.00;100890.63;2088027;28;46382;-65
2024/01/22 03:04:38;;;;;;;;;2.00;2.00;;;;;14.26;100.00;100888.94;2098358;28;46353;-65
2024/01/22 03:05:40;;;;;;;;;1.00;1.00;;;;;14.23;100.00;100894.38;2096491;28;46475;-65
2024/01/22 03:06:41;;;;;;;;;3.00;3.00;;;;;14.22;100.00;100865.91;2088135;28;45363;-64
2024/01/22 03:07:41;;;;;;;;;2.00;2.00;;;;;14.21;100.00;100880.19;2094421;28;46371;-65
2024/01/22 03:08:41;;;;;;;;;1.00;1.00;;;;;14.21;100.00;100863.31;2096469;28;46855;-65
2024/01/22 03:09:41;;;;;;;;;1.67;1.67;;;;;14.22;100.00;100881.06;2096355;28;46447;-65
2024/01/22 03:10:42;;;;;;;;;2.00;2.00;;;;;14.22;100.00;100881.94;2096234;28;46173;-66
2024/01/22 03:11:42;;;;;;;;;2.33;2.00;;;;;14.23;100.00;100882.81;2096299;28;46295;-65
2024/01/22 03:12:42;;;;;;;;;1.00;1.00;;;;;14.23;100.00;100864.13;2097232;28;46247;-65
2024/01/22 03:13:43;;;;;;;;;1.00;1.00;;;;;14.23;100.00;100878.38;2096128;28;46676;-65
2024/01/22 03:14:44;;;;;;;;;1.33;1.33;;;;;14.22;100.00;100879.25;2104526;28;45452;-65
2024/01/22 03:15:44;;;;;;;;;1.33;1.33;;;;;14.21;100.00;100860.63;2104721;28;46137;-66
2024/01/22 03:16:44;;;;;;;;;2.00;2.00;;;;;14.23;100.00;100866.78;2094190;28;46319;-65
2024/01/22 03:17:45;;;;;;;;;2.33;0.67;;;;;14.22;100.00;100871.25;2095892;28;46303;-65
2024/01/22 03:18:45;;;;;;;;;1.00;1.00;;;;;14.24;100.00;100861.41;2104774;28;46300;-64
2024/01/22 03:19:45;;;;;;;;;3.00;1.00;;;;;14.21;100.00;100834.81;2109262;27;46438;-65
2024/01/22 03:20:46;;;;;;;;;1.00;1.00;;;;;14.24;100.00;100852.53;2108384;27;46473;-65
2024/01/22 03:21:46;;;;;;;;;4.00;3.00;;;;;14.24;100.00;100850.75;2104661;28;47638;-64
2024/01/22 03:22:46;;;;;;;;;2.00;2.00;;;;;14.24;100.00;100842.75;2104186;27;47005;-65
2024/01/22 03:23:47;;;;;;;;;2.00;2.00;;;;;14.24;100.00;100837.41;2104717;28;46932;-66
2024/01/22 03:24:48;;;;;;;;;2.00;2.00;;;;;14.25;100.00;100835.59;2104838;28;46690;-65
2024/01/22 03:25:49;;;;;;;;;1.75;1.75;;;;;14.25;100.00;100840.94;2095855;28;47437;-65
2024/01/22 03:26:49;;;;;;;;;2.33;2.00;;;;;14.29;100.00;100835.44;2096418;28;46232;-65
2024/01/22 03:27:49;;;;;;;;;1.00;1.00;;;;;14.34;100.00;100836.13;2104622;28;46297;-65
2024/01/22 03:28:50;;;;;;;;;2.00;2.00;;;;;14.38;100.00;100827.09;2104298;28;46010;-65
2024/01/22 03:29:50;;;;;;;;;2.00;2.00;;;;;14.38;100.00;100835.13;2104677;28;46447;-64
2024/01/22 03:30:51;;;;;;;;;2.00;2.00;;;;;14.39;100.00;100801.28;2104806;28;45619;-65
2024/01/22 03:31:51;;;;;;;;;1.00;1.00;;;;;14.40;100.00;100825.25;2104590;27;46454;-65
2024/01/22 03:32:52;;;;;;;;;1.00;1.00;;;;;14.41;100.00;100820.78;2104150;28;47178;-65
2024/01/22 03:33:54;;;;;;;;;1.00;1.00;;;;;14.42;100.00;100827.84;2103510;28;45265;-64
2024/01/22 03:34:54;;;;;;;;;1.00;1.00;;;;;14.41;100.00;100818.09;2104437;28;46380;-65
2024/01/22 03:35:55;;;;;;;;;1.00;1.00;;;;;14.43;100.00;100824.25;2104563;28;46019;-65
2024/01/22 03:36:55;;;;;;;;;1.00;1.00;;;;;14.41;100.00;100828.78;2104465;28;46605;-64
2024/01/22 03:37:55;;;;;;;;;1.33;1.33;;;;;14.41;100.00;100813.63;2104295;28;46318;-64
2024/01/22 03:38:56;;;;;;;;;1.00;1.00;;;;;14.41;100.00;100837.66;2104375;28;46205;-66
2024/01/22 03:39:56;;;;;;;;;1.00;1.00;;;;;14.40;100.00;100830.59;2104781;28;46410;-65
2024/01/22 03:40:56;;;;;;;;;1.00;1.00;;;;;14.40;100.00;100813.69;2104612;28;46923;-65
2024/01/22 03:41:57;;;;;;;;;1.00;1.00;;;;;14.36;100.00;100831.63;2104138;27;46312;-65
2024/01/22 03:42:57;;;;;;;;;1.00;1.00;;;;;14.36;100.00;100818.28;2104591;28;45289;-64
2024/01/22 03:43:57;;;;;;;;;1.33;1.33;;;;;14.34;100.00;100813.91;2104671;28;45214;-65
2024/01/22 03:44:58;;;;;;;;;1.67;1.67;;;;;14.34;100.00;100813.91;2104352;28;45911;-65
2024/01/22 03:45:58;;;;;;;;;2.33;1.00;;;;;14.35;100.00;100831.66;2104345;28;46076;-65
2024/01/22 03:46:58;;;;;;;;;2.00;2.00;;;;;14.34;100.00;100828.13;2096560;28;45923;-65
2024/01/22 03:47:58;;;;;;;;;3.00;3.00;;;;;14.35;100.00;100831.66;2096799;28;45834;-66
2024/01/22 03:48:59;;;;;;;;;0.67;0.67;;;;;14.37;100.00;100819.16;2095773;28;45632;-65
2024/01/22 03:50:00;;;;;;;;;2.00;2.00;;;;;14.38;100.00;100837.78;2097162;28;45776;-65
2024/01/22 03:51:01;;;;;;;;;1.50;1.50;;;;;14.39;100.00;100822.63;2096331;28;46639;-65
2024/01/22 03:52:01;;;;;;;;;1.00;1.00;;;;;14.38;100.00;100805.75;2096300;28;46606;-65
2024/01/22 03:53:02;;;;;;;;;1.00;1.00;;;;;14.38;100.00;100812.88;2096991;28;45598;-65
2024/01/22 03:54:02;;;;;;;;;2.00;2.00;;;;;14.35;100.00;100805.81;2097043;28;46639;-65
2024/01/22 03:55:03;;;;;;;;;1.00;1.00;;;;;14.40;100.00;100851.06;2096358;28;46953;-65
2024/01/22 03:56:05;;;;;;;;;1.67;1.67;;;;;14.41;100.00;100828.78;2087267;28;47768;-65
2024/01/22 03:57:07;;;;;;;;;1.00;1.00;;;;;14.41;100.00;100815.44;2094948;28;46776;-65
2024/01/22 03:58:07;;;;;;;;;2.00;2.00;;;;;14.40;100.00;100809.22;2096806;28;46741;-66
2024/01/22 03:59:09;;;;;;;;;1.00;1.00;;;;;14.43;100.00;100824.25;2097031;28;45182;-65
2024/01/22 04:00:10;;;;;;;;;2.75;1.50;;;;;14.42;100.00;100791.34;2096936;28;47018;-64
2024/01/22 04:01:18;;;;;;;;;1.00;1.00;;;;;14.44;100.00;100815.34;2096707;28;46564;-64
2024/01/22 04:02:18;;;;;;;;;1.00;1.00;;;;;14.45;100.00;100806.41;2097124;28;46723;-66
2024/01/22 04:03:19;;;;;;;;;1.00;1.00;;;;;14.46;100.00;100808.16;2096994;28;46367;-64
2024/01/22 04:04:19;;;;;;;;;2.00;2.00;;;;;14.46;100.00;100816.16;2097412;28;45760;-64
2024/01/22 04:05:19;;;;;;;;;1.00;1.00;;;;;14.45;100.00;100806.41;2097723;27;46486;-66
2024/01/22 04:06:20;;;;;;;;;1.67;1.00;;;;;14.45;100.00;100825.09;2095611;28;46224;-65
2024/01/22 04:07:20;;;;;;;;;1.00;1.00;;;;;14.47;100.00;100807.22;2096982;28;45660;-65
2024/01/22 04:08:20;;;;;;;;;0.00;0.00;;;;;14.48;100.00;100805.41;2097048;28;46518;-65
2024/01/22 04:09:21;;;;;;;;;2.00;2.00;;;;;14.47;100.00;100796.53;2096844;28;46693;-65
2024/01/22 04:10:21;;;;;;;;;1.00;1.00;;;;;14.48;100.00;100790.28;2097083;28;45768;-66
2024/01/22 04:11:21;;;;;;;;;1.00;1.00;;;;;14.43;100.00;100801.09;2096769;28;46720;-65
2024/01/22 04:12:22;;;;;;;;;1.00;1.00;;;;;14.47;100.00;100795.66;2096436;28;46256;-66
2024/01/22 04:13:22;;;;;;;;;1.00;1.00;;;;;14.48;100.00;100794.75;2096680;28;46153;-66
2024/01/22 04:14:23;;;;;;;;;1.00;1.00;;;;;14.49;100.00;100767.13;2096442;28;46592;-66
2024/01/22 04:15:23;;;;;;;;;1.00;1.00;;;;;14.48;100.00;100790.28;2096786;28;46223;-66
2024/01/22 04:16:24;;;;;;;;;1.00;1.00;;;;;14.48;100.00;100805.41;2097148;28;46504;-65
2024/01/22 04:17:24;;;;;;;;;3.00;2.67;;;;;14.49;100.00;100775.16;2096940;28;46884;-65
2024/01/22 04:18:25;;;;;;;;;1.67;1.67;;;;;14.50;100.00;100776.88;2096694;28;46256;-65
2024/01/22 04:19:25;;;;;;;;;0.33;0.33;;;;;14.50;100.00;100800.94;2096736;28;46581;-65
2024/01/22 04:20:25;;;;;;;;;1.00;1.00;;;;;14.51;100.00;100808.88;2096995;28;46457;-65
2024/01/22 04:21:27;;;;;;;;;2.00;2.00;;;;;14.50;100.00;100780.44;2097416;28;45557;-66
2024/01/22 04:22:27;;;;;;;;;0.00;0.00;;;;;14.51;100.00;100781.31;2095517;28;45848;-65
2024/01/22 04:23:30;;;;;;;;;1.67;1.67;;;;;14.52;100.00;100812.41;2096964;28;46810;-65
2024/01/22 04:24:30;;;;;;;;;2.00;2.00;;;;;14.53;100.00;100785.66;2094790;28;45683;-66
2024/01/22 04:25:30;;;;;;;;;3.00;3.00;;;;;14.51;100.00;100768.81;2096651;28;46254;-65
2024/01/22 04:26:31;;;;;;;;;1.33;1.33;;;;;14.54;100.00;100810.56;2096788;28;46258;-66
2024/01/22 04:27:31;;;;;;;;;1.33;1.33;;;;;14.48;100.00;100789.41;2096703;28;46710;-65
2024/01/22 04:28:31;;;;;;;;;1.00;1.00;;;;;14.51;100.00;100779.50;2096856;28;46531;-66
2024/01/22 04:29:34;;;;;;;;;1.00;1.00;;;;;14.55;100.00;100785.59;2097149;28;46868;-66
2024/01/22 04:30:35;;;;;;;;;1.00;1.00;;;;;14.54;100.00;100795.41;2096373;28;46904;-65
2024/01/22 04:31:36;;;;;;;;;1.00;1.00;;;;;14.52;100.00;100820.44;2096862;28;46706;-66
2024/01/22 04:32:36;;;;;;;;;1.00;1.00;;;;;14.51;100.00;100791.97;2094940;28;46890;-65
2024/01/22 04:33:36;;;;;;;;;1.33;1.33;;;;;14.52;100.00;100785.72;2096521;28;46736;-66
2024/01/22 04:34:39;;;;;;;;;1.67;1.67;;;;;14.51;100.00;100789.31;2096770;28;46409;-66
2024/01/22 04:35:39;;;;;;;;;1.00;1.00;;;;;14.51;100.00;100792.84;2096735;28;46723;-66
2024/01/22 04:36:40;;;;;;;;;1.33;1.33;;;;;14.53;100.00;100791.00;2096631;28;45976;-66
2024/01/22 04:37:40;;;;;;;;;1.00;1.00;;;;;14.52;100.00;100791.91;2096696;28;47079;-65
2024/01/22 04:38:42;;;;;;;;;1.00;1.00;;;;;14.53;100.00;100772.28;2096498;28;47126;-64